Accueil
METAR-TAF:

METAR-TAF

Aéroports :

Augsbourg, Allemagne

latitude: 48-26N, longitude: 010-56E, altitude: 461 m

Observation

Le bulletin a été fait il y a 32 minutes, à 07:20 UTC
Vent 7 kt de est
Température 2°C
Humidité 93%
Pression 1028 hPa
Visibilité: 5000 m
Ciel couvert à une hauteur de 800 ft
brume

METAR: EDMA 160720Z 08007KT 5000 BR OVC008 02/01 Q1028

Heure: 08:52 (07:52 UTC)

Prévision

Le bulletin a été fait il y a 34 minutes, à 07:18 UTC
Prévision valable du 16 à 08 UTC au 16 à 15 UTC
Vent 5 kt de est/nord-est
Visibilité: 6000 m
Ciel couvert à une hauteur de 800 ft
Evoluant progressivement
du 16 à 08 UTC au 16 à 10 UTC
Nuages épars à une hauteur de 1000 ft

TAF: EDMA 160718Z 1608/1615 07005KT 6000 OVC008 BECMG 1608/1610 SCT010

Observations et prévisions météorologiques de plus de 4000 aéroports (messages METAR et TAF).

Les stations disponibles sont représentées par des disques jaunes et rouges sur la carte.

Passer la souris dessus pour voir le nom de la station.

Cliquer dessus pour voir les observations et prévisions météorologiques.

Pour changer de carte: cliquez sur les boutons verts avec une croix noire pour zoomer, sur le bouton vert avec un tiret pour effectuer un zoom arrière, ou sur les flèches vertes pour les cartes adjacentes.


METAR-TAF: